Essex, CT

10:24 AM EDT on September 22, 2014 (GMT -0400)
Meriden Markham Municipal | Change Station
CLOSE
Current Station
Airport
Location: Meriden,
Elevation: 102 ft
Nearby Weather Stations

Elev 102 ft 41.51 °N, 72.83 °W | Updated 31 minutes ago

Clear
Clear
68 °F
Feels Like 68 °F
N
6
Wind Variable Wind from WNW

Today
High -- | Low -- °F
--% Chance of Precip.
Yesterday
High -- | Low -- °F
Precip. -- in
6:37 AM 6:46 PM
Waning Crescent, 3% visible
Pressure 29.81 in
Visibility 10.0 miles
Clouds Clear
Dew Point 53 °F
Humidity 59%
Rainfall 0.00 in
Snow Depth Not available.
UV 4 out of 12
Pollen 3.30 out of 12
Air Quality Not available.
Flu Activity Not available.
METAR KMMK 221353Z AUTO 29005KT 10SM CLR 20/12 A2981 RMK AO2 SLP092 T02000117 TSNO $

More Conditions Fewer Conditions

Pressure 29.81 in
Visibility 10.0 miles
Clouds Clear
Dew Point 53 °F
Humidity 59%
Rainfall 0.00 in
Snow Depth Not available.
UV 4 out of 12
Pollen 3.30 out of 12
Air Quality Not available.
Flu Activity Not available.
METAR KMMK 221353Z AUTO 29005KT 10SM CLR 20/12 A2981 RMK AO2 SLP092 T02000117 TSNO $

More Conditions Fewer Conditions

10-Day Weather Forecast

Almanac

Astronomy

Sep. 22, 2014 Rise Set
Actual Time 6:37 AM EDT 6:46 PM EDT
Civil Twilight 6:09 AM EDT 7:14 PM EDT
Nautical Twilight 5:37 AM EDT 7:46 PM EDT
Astronomical Twilight 5:04 AM EDT 8:19 PM EDT
Moon 5:02 AM EDT 5:53 PM EDT
Length of Visible Light 13h 04m
Length of Day
12h 09m
Tomorrow will be 2m 44s shorter.
Waning Crescent, 3% of the Moon is Illuminated
Today
Waning Crescent
Sep 24
New
Oct 1
First Quarter
Oct 8
Full
Oct 15
Last Quarter

Today's Extremes

State Highs State Lows

Community

WunderPhotos

Upload Photos

1,755,444 photos uploaded!

WunderBlogs® & News

By Dr. Jeff Masters
Director of Meteorology, Weather Underground
By Kari Strenfel
Meteorologist, Weather Underground
By Christopher C. Burt
Weather Historian, Weather Underground
September 22, 2014
September 22, 2014
September 22, 2014

Nearby

Air Quality

  Air Quality AQ Index Pollutant
Monday Good
OZONE
Monday Good
PM2.5

Snow Depth

Station Depth Elevation
No new snow has been reported.

Earthquake Activity

City Distance Mag. Time & Date
No recent earthquake activity has been reported nearby.
Minimum magnitude displayed is 2.5.

Coastal Water Temperatures

Place Temperature
New London, CT 68.0 °F
Newport, RI 66.9 °F
Quonset Point, RI 68.0 °F
Conimicut Light, RI 68.0 °F
Providence, RI 68.0 °F

Nearby Weather Stations